sensor_id;sensor_type;location;lat;lon;timestamp;pressure;altitude;pressure_sealevel;temperature;humidity
42847;BME280;28495;49.916;14.536;2023-02-11T00:01:21;98555.06;;;-0.19;62.36
42847;BME280;28495;49.916;14.536;2023-02-11T00:06:42;98549.97;;;-0.22;62.34
42847;BME280;28495;49.916;14.536;2023-02-11T00:12:03;98546.50;;;-0.19;62.43
42847;BME280;28495;49.916;14.536;2023-02-11T00:17:24;98543.13;;;-0.21;62.22
42847;BME280;28495;49.916;14.536;2023-02-11T00:22:45;98533.72;;;-0.21;62.19
42847;BME280;28495;49.916;14.536;2023-02-11T00:28:06;98534.50;;;-0.17;62.71
42847;BME280;28495;49.916;14.536;2023-02-11T00:33:27;98520.13;;;-0.26;62.78
42847;BME280;28495;49.916;14.536;2023-02-11T00:38:49;98510.09;;;-0.37;62.53
42847;BME280;28495;49.916;14.536;2023-02-11T00:44:10;98508.38;;;-0.36;63.15
42847;BME280;28495;49.916;14.536;2023-02-11T00:49:32;98501.50;;;-0.34;63.31
42847;BME280;28495;49.916;14.536;2023-02-11T00:54:53;98491.19;;;-0.31;63.25
42847;BME280;28495;49.916;14.536;2023-02-11T01:00:14;98484.28;;;-0.27;63.55
42847;BME280;28495;49.916;14.536;2023-02-11T01:05:37;98479.13;;;-0.26;63.60
42847;BME280;28495;49.916;14.536;2023-02-11T01:11:01;98464.44;;;-0.18;63.55
42847;BME280;28495;49.916;14.536;2023-02-11T01:16:22;98453.31;;;-0.17;63.77
42847;BME280;28495;49.916;14.536;2023-02-11T01:21:45;98442.19;;;-0.16;63.46
42847;BME280;28495;49.916;14.536;2023-02-11T01:27:06;98447.25;;;-0.14;63.80
42847;BME280;28495;49.916;14.536;2023-02-11T01:32:27;98446.28;;;-0.08;64.06
42847;BME280;28495;49.916;14.536;2023-02-11T01:37:48;98439.50;;;-0.11;63.68
42847;BME280;28495;49.916;14.536;2023-02-11T01:43:10;98442.03;;;-0.09;64.19
42847;BME280;28495;49.916;14.536;2023-02-11T01:48:35;98441.09;;;-0.07;63.91
42847;BME280;28495;49.916;14.536;2023-02-11T01:53:59;98435.91;;;-0.04;63.90
42847;BME280;28495;49.916;14.536;2023-02-11T01:59:45;98434.97;;;0.01;64.09
42847;BME280;28495;49.916;14.536;2023-02-11T02:10:46;98402.41;;;0.04;64.12
42847;BME280;28495;49.916;14.536;2023-02-11T02:16:14;98396.28;;;0.10;64.01
42847;BME280;28495;49.916;14.536;2023-02-11T02:28:12;98403.81;;;0.18;64.11
42847;BME280;28495;49.916;14.536;2023-02-11T02:33:42;98374.72;;;0.19;64.46
42847;BME280;28495;49.916;14.536;2023-02-11T02:39:14;98359.31;;;0.20;64.44
42847;BME280;28495;49.916;14.536;2023-02-11T02:44:37;98360.19;;;0.18;64.03
42847;BME280;28495;49.916;14.536;2023-02-11T02:49:58;98349.94;;;0.18;64.42
42847;BME280;28495;49.916;14.536;2023-02-11T03:00:56;98371.06;;;0.29;64.33
42847;BME280;28495;49.916;14.536;2023-02-11T03:06:35;98368.41;;;0.34;64.46
42847;BME280;28495;49.916;14.536;2023-02-11T03:11:59;98370.72;;;0.44;64.43
42847;BME280;28495;49.916;14.536;2023-02-11T03:17:23;98357.78;;;0.48;64.74
42847;BME280;28495;49.916;14.536;2023-02-11T03:22:51;98359.28;;;0.56;64.58
42847;BME280;28495;49.916;14.536;2023-02-11T03:28:33;98350.69;;;0.57;64.60
42847;BME280;28495;49.916;14.536;2023-02-11T03:34:08;98343.84;;;0.58;64.18
42847;BME280;28495;49.916;14.536;2023-02-11T03:39:36;98343.78;;;0.59;64.52
42847;BME280;28495;49.916;14.536;2023-02-11T03:45:08;98331.81;;;0.60;64.53
42847;BME280;28495;49.916;14.536;2023-02-11T03:50:32;98322.09;;;0.71;64.60
42847;BME280;28495;49.916;14.536;2023-02-11T03:55:56;98312.44;;;0.80;64.57
42847;BME280;28495;49.916;14.536;2023-02-11T04:01:20;98308.31;;;0.75;64.23
42847;BME280;28495;49.916;14.536;2023-02-11T04:06:41;98305.88;;;0.69;64.44
42847;BME280;28495;49.916;14.536;2023-02-11T04:12:02;98306.03;;;0.63;64.67
42847;BME280;28495;49.916;14.536;2023-02-11T04:17:23;98297.47;;;0.64;64.77
42847;BME280;28495;49.916;14.536;2023-02-11T04:22:45;98279.53;;;0.63;64.48
42847;BME280;28495;49.916;14.536;2023-02-11T04:28:05;98270.09;;;0.63;64.59
42847;BME280;28495;49.916;14.536;2023-02-11T04:33:26;98254.75;;;0.62;64.65
42847;BME280;28495;49.916;14.536;2023-02-11T04:38:47;98238.47;;;0.61;64.64
42847;BME280;28495;49.916;14.536;2023-02-11T04:44:08;98257.25;;;0.63;65.07
42847;BME280;28495;49.916;14.536;2023-02-11T04:49:29;98256.34;;;0.66;64.51
42847;BME280;28495;49.916;14.536;2023-02-11T04:54:49;98266.50;;;0.70;65.01
42847;BME280;28495;49.916;14.536;2023-02-11T05:00:11;98255.28;;;0.73;65.26
42847;BME280;28495;49.916;14.536;2023-02-11T05:05:31;98226.16;;;0.74;65.04
42847;BME280;28495;49.916;14.536;2023-02-11T05:10:52;98227.78;;;0.76;65.10
42847;BME280;28495;49.916;14.536;2023-02-11T05:16:14;98223.38;;;0.82;65.24
42847;BME280;28495;49.916;14.536;2023-02-11T05:21:35;98225.88;;;0.83;65.08
42847;BME280;28495;49.916;14.536;2023-02-11T05:26:56;98228.44;;;0.83;64.64
42847;BME280;28495;49.916;14.536;2023-02-11T05:32:17;98225.00;;;0.84;65.00
42847;BME280;28495;49.916;14.536;2023-02-11T05:37:38;98210.25;;;0.91;65.13
42847;BME280;28495;49.916;14.536;2023-02-11T05:42:59;98201.59;;;0.95;64.94
42847;BME280;28495;49.916;14.536;2023-02-11T05:48:20;98206.78;;;0.94;65.14
42847;BME280;28495;49.916;14.536;2023-02-11T05:53:41;98215.31;;;0.94;65.14
42847;BME280;28495;49.916;14.536;2023-02-11T05:59:02;98219.47;;;0.98;65.34
42847;BME280;28495;49.916;14.536;2023-02-11T06:04:22;98206.63;;;0.98;65.28
42847;BME280;28495;49.916;14.536;2023-02-11T06:09:43;98222.94;;;0.97;64.96
42847;BME280;28495;49.916;14.536;2023-02-11T06:15:05;98224.69;;;0.97;65.22
42847;BME280;28495;49.916;14.536;2023-02-11T06:20:25;98224.56;;;1.00;65.28
42847;BME280;28495;49.916;14.536;2023-02-11T06:25:46;98212.50;;;1.02;65.03
42847;BME280;28495;49.916;14.536;2023-02-11T06:31:07;98215.88;;;1.04;65.55
42847;BME280;28495;49.916;14.536;2023-02-11T06:36:29;98204.66;;;1.06;65.28
42847;BME280;28495;49.916;14.536;2023-02-11T06:41:51;98217.44;;;1.10;65.49
42847;BME280;28495;49.916;14.536;2023-02-11T06:47:11;98216.38;;;1.17;65.25
42847;BME280;28495;49.916;14.536;2023-02-11T06:52:32;98216.28;;;1.20;65.10
42847;BME280;28495;49.916;14.536;2023-02-11T06:57:53;98215.34;;;1.23;65.54
42847;BME280;28495;49.916;14.536;2023-02-11T07:03:14;98223.78;;;1.26;65.43
42847;BME280;28495;49.916;14.536;2023-02-11T07:08:36;98227.91;;;1.32;65.81
42847;BME280;28495;49.916;14.536;2023-02-11T07:14:06;98237.31;;;1.33;66.02
42847;BME280;28495;49.916;14.536;2023-02-11T07:19:30;98233.69;;;1.39;65.51
42847;BME280;28495;49.916;14.536;2023-02-11T07:24:51;98237.63;;;1.50;65.95
42847;BME280;28495;49.916;14.536;2023-02-11T07:30:12;98239.25;;;1.53;65.51
42847;BME280;28495;49.916;14.536;2023-02-11T07:35:33;98251.00;;;1.62;65.83
42847;BME280;28495;49.916;14.536;2023-02-11T07:40:59;98252.75;;;1.61;65.48
42847;BME280;28495;49.916;14.536;2023-02-11T07:46:23;98251.00;;;1.62;65.98
42847;BME280;28495;49.916;14.536;2023-02-11T07:51:44;98250.09;;;1.63;65.81
42847;BME280;28495;49.916;14.536;2023-02-11T07:57:05;98243.91;;;1.70;65.88
42847;BME280;28495;49.916;14.536;2023-02-11T08:02:28;98251.41;;;1.76;65.44
42847;BME280;28495;49.916;14.536;2023-02-11T08:07:53;98260.72;;;1.80;65.39
42847;BME280;28495;49.916;14.536;2023-02-11T08:13:14;98252.03;;;1.83;65.49
42847;BME280;28495;49.916;14.536;2023-02-11T08:18:35;98246.78;;;1.88;65.26
42847;BME280;28495;49.916;14.536;2023-02-11T08:23:56;98244.97;;;1.90;65.38
42847;BME280;28495;49.916;14.536;2023-02-11T08:29:17;98240.44;;;1.98;65.47
42847;BME280;28495;49.916;14.536;2023-02-11T08:34:37;98251.53;;;2.00;65.07
42847;BME280;28495;49.916;14.536;2023-02-11T08:39:58;98252.06;;;2.10;65.37
42847;BME280;28495;49.916;14.536;2023-02-11T08:45:19;98253.63;;;2.14;65.33
42847;BME280;28495;49.916;14.536;2023-02-11T08:50:40;98251.06;;;2.14;65.68
42847;BME280;28495;49.916;14.536;2023-02-11T08:56:01;98256.25;;;2.12;65.22
42847;BME280;28495;49.916;14.536;2023-02-11T09:01:25;98247.69;;;2.12;65.19
42847;BME280;28495;49.916;14.536;2023-02-11T09:06:46;98245.63;;;2.23;65.55
42847;BME280;28495;49.916;14.536;2023-02-11T09:12:08;98253.97;;;2.30;65.71
42847;BME280;28495;49.916;14.536;2023-02-11T09:17:29;98254.59;;;2.37;65.46
42847;BME280;28495;49.916;14.536;2023-02-11T09:22:50;98243.19;;;2.44;65.79
42847;BME280;28495;49.916;14.536;2023-02-11T09:28:11;98238.72;;;2.49;65.88
42847;BME280;28495;49.916;14.536;2023-02-11T09:33:32;98234.28;;;2.53;65.47
42847;BME280;28495;49.916;14.536;2023-02-11T09:38:54;98236.66;;;2.59;65.80
42847;BME280;28495;49.916;14.536;2023-02-11T09:44:26;98243.41;;;2.63;65.56
42847;BME280;28495;49.916;14.536;2023-02-11T09:49:50;98257.00;;;2.67;65.74
42847;BME280;28495;49.916;14.536;2023-02-11T10:12:46;98253.97;;;3.03;65.95
42847;BME280;28495;49.916;14.536;2023-02-11T10:18:50;98261.69;;;3.04;65.44
42847;BME280;28495;49.916;14.536;2023-02-11T10:24:17;98264.25;;;3.04;65.42
42847;BME280;28495;49.916;14.536;2023-02-11T10:29:42;98243.47;;;3.09;65.62
42847;BME280;28495;49.916;14.536;2023-02-11T10:35:13;98227.94;;;3.11;65.74
42847;BME280;28495;49.916;14.536;2023-02-11T10:40:35;98204.22;;;3.25;65.61
42847;BME280;28495;49.916;14.536;2023-02-11T10:45:56;98202.34;;;3.28;65.66
42847;BME280;28495;49.916;14.536;2023-02-11T10:51:21;98208.19;;;3.33;66.21
42847;BME280;28495;49.916;14.536;2023-02-11T10:56:50;98198.25;;;3.46;66.11
42847;BME280;28495;49.916;14.536;2023-02-11T11:02:30;98168.78;;;3.52;66.18
42847;BME280;28495;49.916;14.536;2023-02-11T11:07:58;98182.25;;;3.59;65.91
42847;BME280;28495;49.916;14.536;2023-02-11T11:18:53;98186.75;;;3.54;65.98
42847;BME280;28495;49.916;14.536;2023-02-11T11:24:43;98181.88;;;3.47;65.84
42847;BME280;28495;49.916;14.536;2023-02-11T11:30:14;98187.06;;;3.46;66.05
42847;BME280;28495;49.916;14.536;2023-02-11T11:35:36;98193.06;;;3.46;66.27
42847;BME280;28495;49.916;14.536;2023-02-11T11:46:41;98194.69;;;3.49;66.35
42847;BME280;28495;49.916;14.536;2023-02-11T11:57:42;98188.38;;;3.56;66.41
42847;BME280;28495;49.916;14.536;2023-02-11T12:09:26;98191.13;;;3.51;66.30
42847;BME280;28495;49.916;14.536;2023-02-11T12:15:22;98184.44;;;3.47;65.96
42847;BME280;28495;49.916;14.536;2023-02-11T12:26:46;98177.00;;;3.62;66.87
42847;BME280;28495;49.916;14.536;2023-02-11T12:32:16;98166.94;;;3.76;66.34
42847;BME280;28495;49.916;14.536;2023-02-11T12:43:42;98167.56;;;3.81;66.44
42847;BME280;28495;49.916;14.536;2023-02-11T12:54:57;98164.72;;;3.67;66.64
42847;BME280;28495;49.916;14.536;2023-02-11T13:00:22;98151.00;;;3.66;66.94
42847;BME280;28495;49.916;14.536;2023-02-11T13:11:36;98159.56;;;3.67;66.90
42847;BME280;28495;49.916;14.536;2023-02-11T13:16:54;98160.66;;;3.61;66.63
42847;BME280;28495;49.916;14.536;2023-02-11T13:22:27;98151.19;;;3.62;67.12
42847;BME280;28495;49.916;14.536;2023-02-11T13:33:43;98144.09;;;3.67;66.82
42847;BME280;28495;49.916;14.536;2023-02-11T13:39:05;98157.06;;;3.65;67.04
42847;BME280;28495;49.916;14.536;2023-02-11T13:44:26;98166.59;;;3.63;67.34
42847;BME280;28495;49.916;14.536;2023-02-11T13:49:49;98155.25;;;3.68;66.91
42847;BME280;28495;49.916;14.536;2023-02-11T14:06:10;98153.56;;;3.66;66.35
42847;BME280;28495;49.916;14.536;2023-02-11T14:11:52;98155.44;;;3.63;66.94
42847;BME280;28495;49.916;14.536;2023-02-11T14:17:16;98155.56;;;3.60;66.94
42847;BME280;28495;49.916;14.536;2023-02-11T14:22:43;98152.13;;;3.59;67.28
42847;BME280;28495;49.916;14.536;2023-02-11T14:28:25;98135.63;;;3.63;67.42
42847;BME280;28495;49.916;14.536;2023-02-11T14:45:20;98149.44;;;3.62;66.99
42847;BME280;28495;49.916;14.536;2023-02-11T14:50:50;98162.44;;;3.59;67.24
42847;BME280;28495;49.916;14.536;2023-02-11T14:56:22;98146.78;;;3.64;67.19
42847;BME280;28495;49.916;14.536;2023-02-11T15:01:51;98142.56;;;3.63;67.47
42847;BME280;28495;49.916;14.536;2023-02-11T15:07:14;98155.38;;;3.64;67.35
42847;BME280;28495;49.916;14.536;2023-02-11T15:12:36;98154.72;;;3.59;67.30
42847;BME280;28495;49.916;14.536;2023-02-11T15:18:00;98151.31;;;4.21;71.63
42847;BME280;28495;49.916;14.536;2023-02-11T15:23:26;98144.59;;;5.14;68.43
42847;BME280;28495;49.916;14.536;2023-02-11T15:28:48;98141.94;;;4.58;66.93
42847;BME280;28495;49.916;14.536;2023-02-11T15:34:11;98152.69;;;4.09;66.35
42847;BME280;28495;49.916;14.536;2023-02-11T15:39:36;98155.44;;;3.84;66.78
42847;BME280;28495;49.916;14.536;2023-02-11T15:50:36;98154.53;;;3.64;67.64
42847;BME280;28495;49.916;14.536;2023-02-11T15:56:16;98141.09;;;3.56;67.38
42847;BME280;28495;49.916;14.536;2023-02-11T16:01:39;98142.00;;;3.55;67.29
42847;BME280;28495;49.916;14.536;2023-02-11T16:07:00;98151.44;;;3.56;67.26
42847;BME280;28495;49.916;14.536;2023-02-11T16:12:23;98161.03;;;3.52;67.84
42847;BME280;28495;49.916;14.536;2023-02-11T16:17:46;98160.38;;;3.47;68.11
42847;BME280;28495;49.916;14.536;2023-02-11T16:23:19;98181.88;;;3.47;67.79
42847;BME280;28495;49.916;14.536;2023-02-11T16:28:41;98189.59;;;3.47;68.14
42847;BME280;28495;49.916;14.536;2023-02-11T16:34:09;98193.13;;;3.45;67.41
42847;BME280;28495;49.916;14.536;2023-02-11T16:39:31;98194.00;;;3.44;67.86
42847;BME280;28495;49.916;14.536;2023-02-11T16:44:53;98206.91;;;3.44;68.35
42847;BME280;28495;49.916;14.536;2023-02-11T16:50:22;98207.88;;;3.41;68.22
42847;BME280;28495;49.916;14.536;2023-02-11T16:55:43;98224.13;;;3.43;68.48
42847;BME280;28495;49.916;14.536;2023-02-11T17:01:05;98208.66;;;3.43;68.60
42847;BME280;28495;49.916;14.536;2023-02-11T17:06:27;98213.03;;;3.41;68.08
42847;BME280;28495;49.916;14.536;2023-02-11T17:11:48;98216.44;;;3.42;68.38
42847;BME280;28495;49.916;14.536;2023-02-11T17:17:12;98224.06;;;3.45;68.46
42847;BME280;28495;49.916;14.536;2023-02-11T17:22:32;98217.22;;;3.44;68.47
42847;BME280;28495;49.916;14.536;2023-02-11T17:27:53;98222.34;;;3.45;68.39
42847;BME280;28495;49.916;14.536;2023-02-11T17:33:14;98223.94;;;3.48;68.75
42847;BME280;28495;49.916;14.536;2023-02-11T17:38:36;98229.91;;;3.50;68.53
42847;BME280;28495;49.916;14.536;2023-02-11T17:43:58;98229.03;;;3.49;68.63
42847;BME280;28495;49.916;14.536;2023-02-11T17:49:18;98251.34;;;3.50;68.53
42847;BME280;28495;49.916;14.536;2023-02-11T17:54:39;98253.94;;;3.50;69.04
42847;BME280;28495;49.916;14.536;2023-02-11T18:00:00;98243.59;;;3.52;68.88
42847;BME280;28495;49.916;14.536;2023-02-11T18:05:34;98245.31;;;3.51;69.20
42847;BME280;28495;49.916;14.536;2023-02-11T18:10:55;98253.94;;;3.50;69.19
42847;BME280;28495;49.916;14.536;2023-02-11T18:16:16;98253.81;;;3.54;69.11
42847;BME280;28495;49.916;14.536;2023-02-11T18:21:37;98252.22;;;3.51;69.22
42847;BME280;28495;49.916;14.536;2023-02-11T18:26:58;98261.44;;;3.57;69.00
42847;BME280;28495;49.916;14.536;2023-02-11T18:32:19;98253.59;;;3.60;69.42
42847;BME280;28495;49.916;14.536;2023-02-11T18:37:41;98256.97;;;3.62;69.16
42847;BME280;28495;49.916;14.536;2023-02-11T18:43:02;98266.44;;;3.61;69.16
42847;BME280;28495;49.916;14.536;2023-02-11T18:48:23;98270.69;;;3.62;69.13
42847;BME280;28495;49.916;14.536;2023-02-11T18:53:46;98269.69;;;3.66;69.14
42847;BME280;28495;49.916;14.536;2023-02-11T18:59:07;98275.63;;;3.69;69.26
42847;BME280;28495;49.916;14.536;2023-02-11T19:04:28;98291.03;;;3.70;69.34
42847;BME280;28495;49.916;14.536;2023-02-11T19:09:49;98297.81;;;3.73;69.48
42847;BME280;28495;49.916;14.536;2023-02-11T19:15:10;98296.88;;;3.75;69.48
42847;BME280;28495;49.916;14.536;2023-02-11T19:20:31;98300.44;;;3.71;69.05
42847;BME280;28495;49.916;14.536;2023-02-11T19:25:52;98300.63;;;3.66;69.50
42847;BME280;28495;49.916;14.536;2023-02-11T19:31:14;98306.44;;;3.72;69.57
42847;BME280;28495;49.916;14.536;2023-02-11T19:36:36;98306.41;;;3.73;69.75
42847;BME280;28495;49.916;14.536;2023-02-11T19:41:57;98308.88;;;3.76;69.47
42847;BME280;28495;49.916;14.536;2023-02-11T19:47:18;98310.78;;;3.71;69.76
42847;BME280;28495;49.916;14.536;2023-02-11T19:52:39;98323.78;;;3.68;69.69
42847;BME280;28495;49.916;14.536;2023-02-11T19:58:00;98328.31;;;3.63;69.71
42847;BME280;28495;49.916;14.536;2023-02-11T20:03:22;98313.72;;;3.62;70.23
42847;BME280;28495;49.916;14.536;2023-02-11T20:08:43;98318.13;;;3.58;69.89
42847;BME280;28495;49.916;14.536;2023-02-11T20:14:04;98325.75;;;3.61;70.29
42847;BME280;28495;49.916;14.536;2023-02-11T20:19:26;98323.38;;;3.57;69.93
42847;BME280;28495;49.916;14.536;2023-02-11T20:24:47;98334.69;;;3.53;70.26
42847;BME280;28495;49.916;14.536;2023-02-11T20:30:10;98337.50;;;3.46;70.81
42847;BME280;28495;49.916;14.536;2023-02-11T20:35:31;98345.34;;;3.43;70.72
42847;BME280;28495;49.916;14.536;2023-02-11T20:40:52;98353.13;;;3.42;70.78
42847;BME280;28495;49.916;14.536;2023-02-11T20:46:15;98352.25;;;3.43;71.00
42847;BME280;28495;49.916;14.536;2023-02-11T20:51:38;98347.03;;;3.44;70.81
42847;BME280;28495;49.916;14.536;2023-02-11T20:56:59;98353.13;;;3.42;71.01
42847;BME280;28495;49.916;14.536;2023-02-11T21:02:20;98349.56;;;3.46;71.17
42847;BME280;28495;49.916;14.536;2023-02-11T21:07:45;98351.44;;;3.41;71.15
42847;BME280;28495;49.916;14.536;2023-02-11T21:13:05;98354.00;;;3.42;71.42
42847;BME280;28495;49.916;14.536;2023-02-11T21:18:26;98363.34;;;3.45;71.47
42847;BME280;28495;49.916;14.536;2023-02-11T21:23:47;98364.06;;;3.48;70.77
42847;BME280;28495;49.916;14.536;2023-02-11T21:29:08;98374.34;;;3.50;71.20
42847;BME280;28495;49.916;14.536;2023-02-11T21:34:29;98378.88;;;3.43;71.38
42847;BME280;28495;49.916;14.536;2023-02-11T21:39:50;98383.88;;;3.48;71.39
42847;BME280;28495;49.916;14.536;2023-02-11T21:45:11;98394.19;;;3.48;71.44
42847;BME280;28495;49.916;14.536;2023-02-11T21:50:32;98387.34;;;3.47;71.58
42847;BME280;28495;49.916;14.536;2023-02-11T21:56:04;98394.25;;;3.46;72.04
42847;BME280;28495;49.916;14.536;2023-02-11T22:01:28;98398.34;;;3.52;71.99
42847;BME280;28495;49.916;14.536;2023-02-11T22:06:49;98401.84;;;3.49;71.29
42847;BME280;28495;49.916;14.536;2023-02-11T22:12:10;98413.13;;;3.47;71.29
42847;BME280;28495;49.916;14.536;2023-02-11T22:17:33;98414.75;;;3.49;71.38
42847;BME280;28495;49.916;14.536;2023-02-11T22:22:54;98418.91;;;3.54;71.78
42847;BME280;28495;49.916;14.536;2023-02-11T22:28:14;98418.88;;;3.55;71.64
42847;BME280;28495;49.916;14.536;2023-02-11T22:33:35;98425.66;;;3.58;71.67
42847;BME280;28495;49.916;14.536;2023-02-11T22:39:04;98429.84;;;3.60;72.08
42847;BME280;28495;49.916;14.536;2023-02-11T22:44:26;98441.16;;;3.56;71.87
42847;BME280;28495;49.916;14.536;2023-02-11T22:49:46;98442.03;;;3.57;71.91
42847;BME280;28495;49.916;14.536;2023-02-11T22:55:07;98443.88;;;3.53;71.61
42847;BME280;28495;49.916;14.536;2023-02-11T23:00:34;98455.81;;;3.56;72.53
42847;BME280;28495;49.916;14.536;2023-02-11T23:05:57;98448.91;;;3.56;72.33
42847;BME280;28495;49.916;14.536;2023-02-11T23:11:25;98450.72;;;3.54;72.39
42847;BME280;28495;49.916;14.536;2023-02-11T23:16:48;98459.22;;;3.56;72.28
42847;BME280;28495;49.916;14.536;2023-02-11T23:22:09;98461.81;;;3.56;72.18
42847;BME280;28495;49.916;14.536;2023-02-11T23:27:30;98468.66;;;3.57;72.28
42847;BME280;28495;49.916;14.536;2023-02-11T23:32:51;98458.84;;;3.67;72.71
42847;BME280;28495;49.916;14.536;2023-02-11T23:38:12;98448.00;;;3.57;72.17
42847;BME280;28495;49.916;14.536;2023-02-11T23:43:32;98447.47;;;3.49;72.19
42847;BME280;28495;49.916;14.536;2023-02-11T23:48:54;98439.66;;;3.50;72.16
42847;BME280;28495;49.916;14.536;2023-02-11T23:54:15;98449.69;;;3.58;72.56
42847;BME280;28495;49.916;14.536;2023-02-11T23:59:36;98450.50;;;3.60;72.34
